Time;durP1;ratioP1;P1;durP2;ratioP2;P2;SDS_P1;SDS_P2;PMS_P1;PMS_P2;Temp;Humidity;BMP_temperature;BMP_pressure;BME280_temperature;BME280_humidity;BME280_pressure;Samples;Min_cycle;Max_cycle;Signal;HPM_P1;HPM_P2
2022/03/24 00:00:04;;;;;;;2.50;1.03;;;;;;;;;;4898206;29;20446;-91
2022/03/24 00:02:31;;;;;;;4.07;1.13;;;;;;;;;;4901371;29;20457;-90
2022/03/24 00:04:59;;;;;;;4.07;1.30;;;;;;;;;;4932352;29;20472;-91
2022/03/24 00:07:26;;;;;;;5.73;1.10;;;;;;;;;;4901301;29;20473;-91
2022/03/24 00:09:54;;;;;;;3.33;1.40;;;;;;;;;;4899943;29;20461;-91
2022/03/24 00:12:24;;;;;;;4.27;1.47;;;;;;;;;;4901818;29;20517;-90
2022/03/24 00:14:52;;;;;;;5.33;1.33;;;;;;;;;;4917091;29;20599;-90
2022/03/24 00:17:20;;;;;;;8.80;2.43;;;;;;;;;;4901999;29;20504;-92
2022/03/24 00:19:48;;;;;;;8.00;1.40;;;;;;;;;;4901386;29;20455;-90
2022/03/24 00:22:15;;;;;;;4.67;1.30;;;;;;;;;;4901010;29;20549;-90
2022/03/24 00:24:44;;;;;;;4.03;1.23;;;;;;;;;;4901142;29;20449;-90
2022/03/24 00:27:12;;;;;;;5.97;1.53;;;;;;;;;;4932196;29;20448;-90
2022/03/24 00:29:41;;;;;;;4.33;1.57;;;;;;;;;;4916509;29;20449;-91
2022/03/24 00:32:08;;;;;;;5.73;1.10;;;;;;;;;;4901464;29;20868;-90
2022/03/24 00:34:38;;;;;;;4.30;1.27;;;;;;;;;;4899909;29;20492;-91
2022/03/24 00:37:06;;;;;;;7.70;1.60;;;;;;;;;;4907774;29;20864;-92
2022/03/24 00:39:34;;;;;;;4.83;1.77;;;;;;;;;;4901353;29;20452;-91
2022/03/24 00:42:02;;;;;;;4.40;1.70;;;;;;;;;;4916886;29;20856;-91
2022/03/24 00:44:30;;;;;;;9.97;2.13;;;;;;;;;;4900380;29;20497;-92
2022/03/24 00:46:57;;;;;;;4.20;1.90;;;;;;;;;;4900736;29;20456;-92
2022/03/24 00:49:26;;;;;;;15.17;3.70;;;;;;;;;;4901326;29;20963;-90
2022/03/24 00:51:53;;;;;;;17.73;4.77;;;;;;;;;;4900999;29;20500;-91
2022/03/24 00:54:21;;;;;;;10.77;3.80;;;;;;;;;;4916182;29;20552;-90
2022/03/24 00:56:48;;;;;;;17.93;5.70;;;;;;;;;;4915894;29;20547;-91
2022/03/24 00:59:16;;;;;;;13.17;4.40;;;;;;;;;;4900376;29;20453;-90
2022/03/24 01:01:43;;;;;;;13.27;4.50;;;;;;;;;;4900231;29;20449;-91
2022/03/24 01:04:12;;;;;;;13.23;4.83;;;;;;;;;;4900546;29;20456;-90
2022/03/24 01:06:40;;;;;;;13.37;4.20;;;;;;;;;;4900760;29;20832;-90
2022/03/24 01:09:08;;;;;;;9.40;3.53;;;;;;;;;;4900962;29;20817;-90
2022/03/24 01:11:35;;;;;;;11.47;4.47;;;;;;;;;;4900503;29;20460;-91
2022/03/24 01:14:05;;;;;;;8.00;3.37;;;;;;;;;;4900499;29;20847;-90
2022/03/24 01:16:34;;;;;;;6.40;2.70;;;;;;;;;;4915671;29;20453;-90
2022/03/24 01:19:02;;;;;;;9.03;2.90;;;;;;;;;;4900961;29;20464;-91
2022/03/24 01:21:31;;;;;;;7.60;2.17;;;;;;;;;;4915778;29;20448;-91
2022/03/24 01:24:00;;;;;;;11.00;2.17;;;;;;;;;;4900659;29;20452;-90
2022/03/24 01:26:28;;;;;;;4.90;1.97;;;;;;;;;;4931050;29;21015;-90
2022/03/24 01:28:56;;;;;;;4.60;1.60;;;;;;;;;;4916139;29;20452;-90
2022/03/24 01:31:24;;;;;;;4.53;1.50;;;;;;;;;;4897434;29;20453;-90
2022/03/24 01:33:51;;;;;;;3.47;1.80;;;;;;;;;;4915243;29;20479;-90
2022/03/24 01:36:19;;;;;;;6.20;1.67;;;;;;;;;;4900568;29;20970;-91
2022/03/24 01:38:47;;;;;;;2.37;1.13;;;;;;;;;;4901328;29;20537;-91
2022/03/24 01:41:14;;;;;;;3.83;1.17;;;;;;;;;;4896906;29;20446;-91
2022/03/24 01:43:42;;;;;;;8.60;1.53;;;;;;;;;;4897096;29;20442;-91
2022/03/24 01:46:09;;;;;;;4.53;1.47;;;;;;;;;;4900396;29;20452;-91
2022/03/24 01:48:37;;;;;;;2.23;1.17;;;;;;;;;;4900674;29;20949;-91
2022/03/24 01:51:05;;;;;;;3.00;1.00;;;;;;;;;;4913460;29;20825;-91
2022/03/24 01:53:33;;;;;;;3.80;1.47;;;;;;;;;;4904153;29;20449;-92
2022/03/24 01:56:00;;;;;;;2.60;1.77;;;;;;;;;;4903522;29;20456;-89
2022/03/24 01:58:28;;;;;;;8.00;1.60;;;;;;;;;;4903953;29;20444;-89
2022/03/24 02:01:00;;;;;;;6.80;1.90;;;;;;;;;;4919210;29;20495;-89
2022/03/24 02:03:28;;;;;;;4.67;1.50;;;;;;;;;;4900413;29;20454;-89
2022/03/24 02:05:56;;;;;;;2.27;0.97;;;;;;;;;;4900867;29;20450;-89
2022/03/24 02:08:23;;;;;;;4.40;1.50;;;;;;;;;;4900346;29;20509;-89
2022/03/24 02:10:50;;;;;;;4.40;1.20;;;;;;;;;;4910058;29;20447;-90
2022/03/24 02:13:19;;;;;;;6.20;1.80;;;;;;;;;;4903617;29;20484;-90
2022/03/24 02:15:47;;;;;;;3.60;1.20;;;;;;;;;;4920053;29;20895;-89
2022/03/24 02:18:15;;;;;;;2.23;1.00;;;;;;;;;;4903706;29;20549;-89
2022/03/24 02:20:43;;;;;;;5.13;1.63;;;;;;;;;;4902111;29;20476;-89
2022/03/24 02:23:12;;;;;;;3.30;1.30;;;;;;;;;;4903839;29;20488;-90
2022/03/24 02:25:40;;;;;;;3.53;1.30;;;;;;;;;;4918439;29;20495;-89
2022/03/24 02:28:08;;;;;;;3.07;1.50;;;;;;;;;;4903375;29;20480;-89
2022/03/24 02:30:36;;;;;;;4.60;1.00;;;;;;;;;;4918676;29;20447;-90
2022/03/24 02:33:04;;;;;;;2.33;1.20;;;;;;;;;;4918823;29;20453;-90
2022/03/24 02:35:32;;;;;;;6.23;1.23;;;;;;;;;;4903202;29;20575;-89
2022/03/24 02:38:00;;;;;;;4.20;1.00;;;;;;;;;;4919048;29;20496;-90
2022/03/24 02:40:30;;;;;;;5.90;1.40;;;;;;;;;;4918756;29;20815;-89
2022/03/24 02:42:57;;;;;;;4.13;1.40;;;;;;;;;;4918536;29;20515;-90
2022/03/24 02:45:25;;;;;;;1.93;1.20;;;;;;;;;;4899663;29;20542;-89
2022/03/24 02:47:52;;;;;;;5.60;1.70;;;;;;;;;;4914734;29;20487;-90
2022/03/24 02:50:21;;;;;;;7.80;2.17;;;;;;;;;;4899307;29;20446;-90
2022/03/24 02:52:48;;;;;;;5.60;1.73;;;;;;;;;;4904898;29;20453;-90
2022/03/24 02:55:16;;;;;;;5.87;1.80;;;;;;;;;;4899257;29;20899;-90
2022/03/24 02:57:43;;;;;;;4.70;1.73;;;;;;;;;;4918808;29;20464;-89
2022/03/24 03:00:11;;;;;;;7.07;1.73;;;;;;;;;;4899582;29;21025;-89
2022/03/24 03:02:39;;;;;;;4.03;1.50;;;;;;;;;;4899302;29;20441;-89
2022/03/24 03:05:07;;;;;;;6.10;1.80;;;;;;;;;;4888423;29;20449;-89
2022/03/24 03:07:35;;;;;;;8.23;1.73;;;;;;;;;;4902193;29;21005;-88
2022/03/24 03:10:03;;;;;;;3.70;1.50;;;;;;;;;;4918410;29;20488;-89
2022/03/24 03:12:30;;;;;;;3.93;1.43;;;;;;;;;;4903011;29;20449;-90
2022/03/24 03:14:57;;;;;;;27.97;2.53;;;;;;;;;;4902023;29;20520;-90
2022/03/24 03:17:25;;;;;;;9.70;1.40;;;;;;;;;;4902557;29;20932;-89
2022/03/24 03:19:55;;;;;;;7.43;1.70;;;;;;;;;;4902789;29;20460;-90
2022/03/24 03:22:29;;;;;;;2.97;1.40;;;;;;;;;;4903288;29;20483;-90
2022/03/24 03:24:57;;;;;;;8.40;0.97;;;;;;;;;;4903083;29;20491;-90
2022/03/24 03:27:26;;;;;;;4.67;1.80;;;;;;;;;;4898013;29;20453;-90
2022/03/24 03:29:53;;;;;;;4.60;1.70;;;;;;;;;;4883572;29;20554;-89
2022/03/24 03:32:21;;;;;;;4.83;1.63;;;;;;;;;;4914812;29;20809;-89
2022/03/24 03:34:50;;;;;;;6.83;1.73;;;;;;;;;;4900163;29;20481;-89
2022/03/24 03:37:18;;;;;;;7.97;1.40;;;;;;;;;;4902252;29;20460;-90
2022/03/24 03:39:46;;;;;;;4.53;0.87;;;;;;;;;;4901565;29;20445;-89
2022/03/24 03:42:13;;;;;;;2.87;0.90;;;;;;;;;;4901997;29;21011;-89
2022/03/24 03:44:42;;;;;;;4.90;1.23;;;;;;;;;;4917209;29;20498;-90
2022/03/24 03:47:09;;;;;;;8.83;1.20;;;;;;;;;;4933503;29;20441;-89
2022/03/24 03:49:37;;;;;;;3.33;1.00;;;;;;;;;;4933094;29;20477;-90
2022/03/24 03:52:25;;;;;;;5.37;1.00;;;;;;;;;;4930672;29;20449;-90
2022/03/24 03:54:53;;;;;;;8.60;1.33;;;;;;;;;;4916919;29;20486;-89
2022/03/24 03:57:21;;;;;;;3.80;1.33;;;;;;;;;;4917225;29;20464;-90
2022/03/24 03:59:48;;;;;;;5.20;1.37;;;;;;;;;;4901889;29;20457;-89
2022/03/24 04:02:16;;;;;;;6.83;1.20;;;;;;;;;;4917649;29;20452;-90
2022/03/24 04:04:45;;;;;;;4.30;1.83;;;;;;;;;;4901866;29;20445;-89
2022/03/24 04:07:13;;;;;;;3.43;1.07;;;;;;;;;;4932626;29;20481;-89
2022/03/24 04:09:40;;;;;;;5.77;0.90;;;;;;;;;;4900949;29;20453;-89
2022/03/24 04:12:08;;;;;;;5.30;1.40;;;;;;;;;;4916758;29;20952;-89
2022/03/24 04:14:35;;;;;;;4.20;0.80;;;;;;;;;;4901491;29;20487;-91
2022/03/24 04:17:03;;;;;;;3.00;0.93;;;;;;;;;;4901256;29;20449;-89
2022/03/24 04:19:32;;;;;;;6.20;0.80;;;;;;;;;;4901911;29;20448;-90
2022/03/24 04:21:59;;;;;;;1.97;0.60;;;;;;;;;;4916499;29;20817;-90
2022/03/24 04:24:27;;;;;;;5.83;0.80;;;;;;;;;;4901572;29;20448;-90
2022/03/24 04:26:56;;;;;;;5.67;1.00;;;;;;;;;;4900902;29;20444;-88
2022/03/24 04:29:24;;;;;;;6.97;1.27;;;;;;;;;;4901565;29;20448;-89
2022/03/24 04:31:51;;;;;;;5.10;1.30;;;;;;;;;;4901100;29;20453;-88
2022/03/24 04:34:19;;;;;;;2.43;1.20;;;;;;;;;;4900592;29;20456;-88
2022/03/24 04:36:47;;;;;;;6.63;1.87;;;;;;;;;;4900905;29;20456;-89
2022/03/24 04:39:16;;;;;;;3.30;1.23;;;;;;;;;;4916345;29;20441;-89
2022/03/24 04:41:43;;;;;;;4.57;1.20;;;;;;;;;;4932072;29;20512;-90
2022/03/24 04:44:11;;;;;;;8.47;1.40;;;;;;;;;;4916894;29;20485;-90
2022/03/24 04:46:38;;;;;;;9.07;1.53;;;;;;;;;;4897490;29;20452;-90
2022/03/24 04:49:06;;;;;;;6.73;2.23;;;;;;;;;;4902250;29;20453;-89
2022/03/24 04:51:34;;;;;;;5.67;2.10;;;;;;;;;;4919722;29;20455;-88
2022/03/24 04:54:02;;;;;;;9.23;3.13;;;;;;;;;;4932260;29;20484;-89
2022/03/24 04:56:31;;;;;;;8.90;2.60;;;;;;;;;;4900889;29;20500;-89
2022/03/24 04:58:59;;;;;;;7.37;1.90;;;;;;;;;;4916617;29;20473;-89
2022/03/24 05:01:26;;;;;;;7.57;2.27;;;;;;;;;;4900913;29;20794;-89
2022/03/24 05:03:55;;;;;;;5.60;2.10;;;;;;;;;;4916184;29;20944;-89
2022/03/24 05:06:23;;;;;;;11.47;2.30;;;;;;;;;;4900714;29;20441;-89
2022/03/24 05:08:51;;;;;;;4.23;1.83;;;;;;;;;;4900579;29;20544;-89
2022/03/24 05:11:18;;;;;;;9.30;2.20;;;;;;;;;;4916130;29;20459;-90
2022/03/24 05:13:45;;;;;;;4.73;1.80;;;;;;;;;;4886513;29;20448;-89
2022/03/24 05:16:13;;;;;;;4.60;1.43;;;;;;;;;;4903365;29;20488;-89
2022/03/24 05:18:41;;;;;;;7.60;2.23;;;;;;;;;;4900882;29;20445;-90
2022/03/24 05:21:08;;;;;;;6.50;1.83;;;;;;;;;;4902514;29;20959;-88
2022/03/24 05:23:39;;;;;;;4.30;1.43;;;;;;;;;;4919958;29;20574;-89
2022/03/24 05:26:07;;;;;;;6.07;1.53;;;;;;;;;;4919983;29;20460;-90
2022/03/24 05:28:35;;;;;;;10.90;1.30;;;;;;;;;;4904392;29;20970;-89
2022/03/24 05:31:03;;;;;;;3.87;1.60;;;;;;;;;;4904990;29;20437;-90
2022/03/24 05:33:30;;;;;;;10.70;1.37;;;;;;;;;;4920041;29;20847;-89
2022/03/24 05:35:57;;;;;;;5.63;1.30;;;;;;;;;;4904498;29;20476;-89
2022/03/24 05:38:26;;;;;;;7.70;1.60;;;;;;;;;;4921125;29;20991;-91
2022/03/24 05:40:54;;;;;;;4.60;1.40;;;;;;;;;;4904500;29;20460;-90
2022/03/24 05:43:22;;;;;;;8.90;1.90;;;;;;;;;;4904187;29;20441;-89
2022/03/24 05:45:49;;;;;;;4.50;1.30;;;;;;;;;;4904251;29;20873;-89
2022/03/24 05:48:17;;;;;;;4.03;1.13;;;;;;;;;;4900769;29;20537;-90
2022/03/24 05:50:45;;;;;;;2.00;1.03;;;;;;;;;;4901762;29;20461;-89
2022/03/24 05:53:12;;;;;;;4.83;1.67;;;;;;;;;;4916171;29;20457;-89
2022/03/24 05:55:40;;;;;;;2.57;1.30;;;;;;;;;;4900651;29;20481;-89
2022/03/24 05:58:14;;;;;;;3.73;1.20;;;;;;;;;;4900391;29;20956;-89
2022/03/24 06:00:41;;;;;;;7.80;1.53;;;;;;;;;;4916323;29;20812;-89
2022/03/24 06:03:09;;;;;;;2.63;1.23;;;;;;;;;;4900262;29;20505;-90
2022/03/24 06:05:40;;;;;;;6.77;2.20;;;;;;;;;;4915600;29;21028;-89
2022/03/24 06:08:09;;;;;;;2.80;1.00;;;;;;;;;;4900153;29;20488;-89
2022/03/24 06:10:36;;;;;;;6.20;1.60;;;;;;;;;;4915885;29;20534;-89
2022/03/24 06:13:06;;;;;;;4.97;1.20;;;;;;;;;;4902748;29;20460;-89
2022/03/24 06:15:34;;;;;;;4.83;0.97;;;;;;;;;;4903964;29;20547;-89
2022/03/24 06:18:02;;;;;;;2.93;1.30;;;;;;;;;;4903557;29;20437;-88
2022/03/24 06:20:30;;;;;;;3.03;1.40;;;;;;;;;;4903263;29;20460;-88
2022/03/24 06:22:58;;;;;;;6.00;1.00;;;;;;;;;;4903921;29;20512;-89
2022/03/24 06:25:26;;;;;;;6.07;1.10;;;;;;;;;;4903772;29;20448;-88
2022/03/24 06:27:55;;;;;;;2.77;0.83;;;;;;;;;;4903766;29;20476;-89
2022/03/24 06:30:25;;;;;;;2.03;0.87;;;;;;;;;;4919207;29;20873;-90
2022/03/24 06:32:52;;;;;;;3.83;0.87;;;;;;;;;;4902843;29;20467;-89
2022/03/24 06:35:20;;;;;;;2.27;0.70;;;;;;;;;;4903580;29;20566;-87
2022/03/24 06:37:48;;;;;;;9.83;1.17;;;;;;;;;;4903440;29;20805;-90
2022/03/24 06:40:16;;;;;;;2.53;1.10;;;;;;;;;;4918889;29;20492;-88
2022/03/24 06:42:43;;;;;;;2.67;0.87;;;;;;;;;;4903446;29;20445;-91
2022/03/24 06:45:14;;;;;;;3.97;1.10;;;;;;;;;;4902786;29;21069;-89
2022/03/24 06:47:42;;;;;;;5.47;2.03;;;;;;;;;;4918462;29;20441;-90
2022/03/24 06:50:10;;;;;;;3.77;1.20;;;;;;;;;;4903015;29;20468;-89
2022/03/24 06:52:39;;;;;;;7.40;1.87;;;;;;;;;;4918742;29;20448;-88
2022/03/24 06:55:06;;;;;;;6.90;2.33;;;;;;;;;;4918769;29;20480;-88
2022/03/24 06:57:34;;;;;;;4.10;1.70;;;;;;;;;;4918143;29;20449;-88
2022/03/24 07:00:03;;;;;;;7.13;2.17;;;;;;;;;;4903004;29;20524;-89
2022/03/24 07:02:30;;;;;;;12.33;1.70;;;;;;;;;;4902635;29;20445;-88
2022/03/24 07:04:57;;;;;;;7.13;2.97;;;;;;;;;;4902430;29;20556;-89
2022/03/24 07:07:27;;;;;;;5.27;1.60;;;;;;;;;;4902722;29;20531;-90
2022/03/24 07:09:54;;;;;;;10.63;1.70;;;;;;;;;;4902809;29;21568;-89
2022/03/24 07:12:22;;;;;;;3.93;1.30;;;;;;;;;;4918027;29;20441;-89
2022/03/24 07:14:50;;;;;;;3.50;1.70;;;;;;;;;;4901668;29;20549;-89
2022/03/24 07:17:19;;;;;;;4.20;1.27;;;;;;;;;;4902110;29;20445;-89
2022/03/24 07:19:47;;;;;;;3.33;1.00;;;;;;;;;;4902736;29;20441;-88
2022/03/24 07:22:15;;;;;;;2.40;1.07;;;;;;;;;;4918070;29;20441;-89
2022/03/24 07:24:43;;;;;;;2.60;0.90;;;;;;;;;;4902301;29;20456;-89
2022/03/24 07:27:11;;;;;;;4.73;1.03;;;;;;;;;;4901905;29;20460;-89
2022/03/24 07:29:38;;;;;;;1.93;0.80;;;;;;;;;;4901987;29;20452;-88
2022/03/24 07:32:07;;;;;;;1.20;0.60;;;;;;;;;;4901491;29;20797;-88
2022/03/24 07:34:35;;;;;;;3.23;0.73;;;;;;;;;;4917902;29;20436;-88
2022/03/24 07:37:04;;;;;;;1.33;0.87;;;;;;;;;;4897856;29;20536;-89
2022/03/24 07:39:31;;;;;;;2.93;0.87;;;;;;;;;;4898446;29;20457;-88
2022/03/24 07:41:59;;;;;;;1.40;0.80;;;;;;;;;;4898264;29;20450;-89
2022/03/24 07:44:28;;;;;;;3.23;0.67;;;;;;;;;;4897954;29;20465;-89
2022/03/24 07:46:55;;;;;;;4.23;1.23;;;;;;;;;;4899917;29;20522;-88
2022/03/24 07:49:23;;;;;;;6.50;1.20;;;;;;;;;;4898931;29;20445;-89
2022/03/24 07:51:50;;;;;;;2.67;1.10;;;;;;;;;;4898243;29;20445;-89
2022/03/24 07:54:18;;;;;;;2.07;0.63;;;;;;;;;;4898600;29;20842;-89
2022/03/24 07:56:45;;;;;;;1.77;0.97;;;;;;;;;;4917017;29;20496;-87
2022/03/24 07:59:13;;;;;;;6.00;1.20;;;;;;;;;;4901328;29;20842;-86
2022/03/24 08:01:41;;;;;;;4.37;1.17;;;;;;;;;;4901164;29;20457;-86
2022/03/24 08:04:08;;;;;;;2.83;0.90;;;;;;;;;;4900200;29;20479;-86
2022/03/24 08:06:47;;;;;;;2.90;0.90;;;;;;;13.36;nan;100800.69;5110585;27;20904;-86
2022/03/24 08:09:16;;;;;;;3.47;0.90;;;;;;;13.39;nan;100812.09;5109680;28;20436;-89
2022/03/24 08:11:44;;;;;;;2.83;0.83;;;;;;;13.40;nan;100796.47;5087892;28;20518;-89
2022/03/24 08:14:14;;;;;;;3.30;1.00;;;;;;;13.38;nan;100793.09;5091717;28;20440;-89
2022/03/24 08:16:47;;;;;;;2.27;1.10;;;;;;;13.36;nan;100793.28;5090101;28;20505;-89
2022/03/24 08:19:15;;;;;;;4.33;1.10;;;;;;;13.49;nan;100800.66;5108798;28;20435;-88
2022/03/24 08:21:43;;;;;;;2.50;1.00;;;;;;;13.49;nan;100807.00;5109390;28;20443;-88
2022/03/24 08:24:12;;;;;;;2.80;1.20;;;;;;;13.51;nan;100794.97;5092275;28;20459;-89
2022/03/24 08:26:40;;;;;;;2.07;0.97;;;;;;;13.52;nan;100811.25;5076177;28;20484;-88
2022/03/24 08:29:08;;;;;;;1.80;0.97;;;;;;;13.54;nan;100809.13;5089360;28;20817;-88
2022/03/24 08:31:36;;;;;;;2.47;0.97;;;;;;;13.46;nan;100810.22;5072367;28;20475;-88
2022/03/24 08:34:05;;;;;;;2.13;0.83;;;;;;;13.43;nan;100813.38;5073286;28;20946;-88
2022/03/24 08:36:34;;;;;;;3.53;0.80;;;;;;;13.47;nan;100825.59;5072128;28;20791;-88
2022/03/24 08:39:02;;;;;;;2.23;1.00;;;;;;;13.45;nan;100821.41;5101658;28;20956;-89
2022/03/24 08:41:31;;;;;;;2.70;0.83;;;;;;;13.55;nan;100829.19;5071543;28;20972;-88
2022/03/24 08:43:58;;;;;;;1.50;0.80;;;;;;;13.54;nan;100816.53;5072417;28;20449;-89
2022/03/24 08:46:27;;;;;;;1.47;0.80;;;;;;;13.62;nan;100833.66;5085512;28;20475;-88
2022/03/24 08:48:56;;;;;;;1.80;0.70;;;;;;;13.63;nan;100829.84;5051184;28;20449;-88
2022/03/24 08:51:27;;;;;;;2.33;1.13;;;;;;;13.56;nan;100823.50;5051224;28;20446;-88
2022/03/24 08:53:55;;;;;;;2.90;0.77;;;;;;;13.68;nan;100838.28;5035043;28;20791;-88
2022/03/24 08:56:25;;;;;;;3.87;0.90;;;;;;;13.66;nan;100829.38;5030829;28;20459;-89
2022/03/24 08:58:53;;;;;;;1.20;0.70;;;;;;;13.73;nan;100835.75;5067207;28;20975;-88
2022/03/24 09:01:21;;;;;;;1.43;0.73;;;;;;;13.83;nan;100838.06;5043866;28;20446;-88
2022/03/24 09:03:55;;;;;;;1.40;0.83;;;;;;;13.85;nan;100832.38;4987358;28;20456;-88
2022/03/24 09:06:27;;;;;;;2.63;1.13;;;;;;;13.91;nan;100839.72;5005849;28;20988;-88
2022/03/24 09:08:57;;;;;;;2.37;0.80;;;;;;;13.98;nan;100835.94;5047830;28;21022;-88
2022/03/24 09:11:26;;;;;;;2.70;0.93;;;;;;;13.94;nan;100831.91;5047050;28;20465;-88
2022/03/24 09:13:55;;;;;;;2.40;0.77;;;;;;;14.01;nan;100846.50;5033229;28;20591;-89
2022/03/24 09:16:23;;;;;;;3.27;0.90;;;;;;;14.03;nan;100838.88;5038920;28;20450;-88
2022/03/24 09:18:51;;;;;;;3.83;1.10;;;;;;;14.14;nan;100849.22;5020593;28;20442;-88
2022/03/24 09:21:19;;;;;;;2.60;0.80;;;;;;;14.15;nan;100844.56;5025364;28;21028;-88
2022/03/24 09:23:47;;;;;;;3.40;0.90;;;;;;;14.20;nan;100844.78;5094419;28;20436;-88
2022/03/24 09:26:16;;;;;;;4.30;1.07;;;;;;;14.15;nan;100839.06;5094572;28;20564;-88
2022/03/24 09:28:59;;;;;;;2.03;0.70;;;;;;;14.22;nan;100853.66;5063092;28;20490;-89
2022/03/24 09:31:28;;;;;;;1.50;0.70;;;;;;;14.23;nan;100841.59;5076177;28;20441;-88
2022/03/24 09:33:57;;;;;;;2.27;0.90;;;;;;;14.38;nan;100849.59;5094239;28;20456;-89
2022/03/24 09:36:25;;;;;;;1.60;0.70;;;;;;;14.51;nan;100861.41;5075240;28;20449;-89
2022/03/24 09:38:54;;;;;;;2.73;0.87;;;;;;;14.51;nan;100850.41;5090552;28;20453;-89
2022/03/24 09:41:25;;;;;;;2.10;1.10;;;;;;;14.68;nan;100859.00;5074483;28;20464;-89
2022/03/24 09:43:52;;;;;;;1.93;0.70;;;;;;;14.74;nan;100865.56;5078863;28;20962;-89
2022/03/24 09:46:22;;;;;;;4.80;1.13;;;;;;;14.81;nan;100861.72;5071062;28;21055;-88
2022/03/24 09:48:50;;;;;;;2.27;0.97;;;;;;;14.90;nan;100875.22;5057450;28;20465;-88
2022/03/24 09:51:20;;;;;;;5.20;1.03;;;;;;;14.97;nan;100881.53;5055608;28;20453;-88
2022/03/24 09:53:48;;;;;;;10.67;2.30;;;;;;;15.05;nan;100873.84;5079203;28;20452;-88
2022/03/24 09:56:18;;;;;;;2.33;1.00;;;;;;;15.10;nan;100882.31;5065054;28;20457;-87
2022/03/24 09:58:49;;;;;;;2.93;1.00;;;;;;;15.16;nan;100875.94;5077832;28;20442;-87
2022/03/24 10:01:17;;;;;;;2.23;0.63;;;;;;;15.19;nan;100863.63;5057196;28;20985;-87
2022/03/24 10:04:08;;;;;;;5.93;1.13;;;;;;;15.36;nan;100866.69;5073925;28;20484;-87
2022/03/24 10:06:57;;;;;;;6.53;0.93;;;;;;;15.54;nan;100866.78;5074388;28;20473;-94
2022/03/24 10:09:42;;;;;;;7.13;2.23;;;;;;;15.76;nan;100883.81;5058188;28;20510;-96
2022/03/24 10:12:22;;;;;;;5.80;1.57;;;;;;;15.92;nan;100876.88;5076578;28;20449;-92
2022/03/24 10:15:10;;;;;;;4.10;1.10;;;;;;;16.08;nan;100890.09;5062743;28;20795;-91
2022/03/24 10:17:57;;;;;;;4.73;1.87;;;;;;;16.18;nan;100890.41;5060496;28;20890;-89
2022/03/24 10:20:33;;;;;;;4.53;2.17;;;;;;;16.17;nan;100888.72;5093645;28;20444;-91
2022/03/24 10:23:05;;;;;;;5.87;1.80;;;;;;;16.20;nan;100893.78;5089047;28;20452;-87
2022/03/24 10:25:34;;;;;;;9.13;4.30;;;;;;;16.13;nan;100893.03;5094118;28;20892;-90
2022/03/24 10:28:08;;;;;;;7.07;3.20;;;;;;;16.04;nan;100894.38;5092013;28;20444;-92
2022/03/24 10:30:58;;;;;;;4.03;1.20;;;;;;;15.93;nan;100907.00;5091294;28;20457;-88
2022/03/24 10:33:33;;;;;;;3.87;1.13;;;;;;;15.76;nan;100903.09;5083899;28;20448;-88
2022/03/24 10:36:17;;;;;;;4.53;0.90;;;;;;;15.65;nan;100901.06;5093265;28;20453;-86
2022/03/24 10:38:50;;;;;;;6.17;0.87;;;;;;;15.57;nan;100893.91;5078384;28;20592;-87
2022/03/24 10:41:25;;;;;;;3.13;1.20;;;;;;;15.62;nan;100899.59;5060499;28;20449;-87
2022/03/24 10:43:55;;;;;;;4.30;0.90;;;;;;;15.65;nan;100899.13;5093477;28;20447;-87
2022/03/24 10:46:31;;;;;;;3.10;0.77;;;;;;;15.79;nan;100897.13;5060548;28;20986;-86
2022/03/24 10:49:14;;;;;;;3.63;0.80;;;;;;;15.98;nan;100892.50;5076594;28;20448;-86
2022/03/24 10:51:43;;;;;;;2.57;1.30;;;;;;;16.26;nan;100890.13;5078711;28;20906;-87
2022/03/24 10:54:14;;;;;;;4.03;1.40;;;;;;;16.58;nan;100891.69;5076497;28;20441;-86
2022/03/24 10:56:56;;;;;;;5.37;1.17;;;;;;;16.89;nan;100881.59;5093245;28;20948;-86
2022/03/24 10:59:26;;;;;;;2.37;1.10;;;;;;;17.08;nan;100874.97;5076729;28;20946;-87
2022/03/24 11:01:54;;;;;;;2.33;0.87;;;;;;;17.18;nan;100866.09;5076411;28;20456;-86
2022/03/24 11:04:23;;;;;;;4.73;1.10;;;;;;;17.47;nan;100886.50;5075974;28;20509;-86
2022/03/24 11:06:52;;;;;;;6.20;1.17;;;;;;;17.57;nan;100878.47;5076270;28;20476;-86
2022/03/24 11:09:31;;;;;;;5.10;0.90;;;;;;;17.75;nan;100891.41;5059745;28;20505;-86
2022/03/24 11:12:25;;;;;;;2.93;0.97;;;;;;;17.79;nan;100898.16;5092707;28;20459;-87
2022/03/24 11:14:59;;;;;;;3.30;0.97;;;;;;;17.63;nan;100898.81;5092624;28;20455;-86
2022/03/24 11:17:32;;;;;;;3.40;0.90;;;;;;;17.53;nan;100911.25;5092649;28;20440;-86
2022/03/24 11:20:15;;;;;;;3.37;0.80;;;;;;;17.46;nan;100907.78;5074183;28;20505;-87
2022/03/24 11:23:09;;;;;;;4.27;1.10;;;;;;;17.40;nan;100905.09;5092006;28;20456;-86
2022/03/24 11:25:37;;;;;;;3.43;1.00;;;;;;;17.35;nan;100902.19;5091984;28;20998;-86
2022/03/24 11:28:11;;;;;;;4.10;1.03;;;;;;;17.49;nan;100901.78;5075868;28;20441;-86
2022/03/24 11:30:38;;;;;;;3.83;1.60;;;;;;;17.47;nan;100884.59;5076644;28;20501;-86
2022/03/24 11:33:08;;;;;;;4.50;0.93;;;;;;;17.66;nan;100904.75;5075821;28;20449;-86
2022/03/24 11:35:36;;;;;;;2.60;0.70;;;;;;;17.74;nan;100898.84;5076148;28;20514;-86
2022/03/24 11:38:05;;;;;;;4.30;1.10;;;;;;;17.80;nan;100903.44;5075406;28;20457;-87
2022/03/24 11:40:34;;;;;;;4.20;0.80;;;;;;;17.79;nan;100885.16;5092038;28;20517;-87
2022/03/24 11:43:10;;;;;;;2.30;0.47;;;;;;;17.87;nan;100890.34;5075759;28;20465;-86
2022/03/24 11:45:58;;;;;;;3.57;0.60;;;;;;;18.39;nan;100892.41;5076527;28;20924;-87
2022/03/24 11:48:36;;;;;;;6.60;1.13;;;;;;;19.01;nan;100888.00;5093506;28;20502;-86
2022/03/24 11:51:06;;;;;;;2.90;0.70;;;;;;;19.14;nan;100890.47;5109138;28;20934;-87
2022/03/24 11:53:35;;;;;;;2.80;0.40;;;;;;;19.06;nan;100890.84;5092375;28;20794;-87
2022/03/24 11:56:02;;;;;;;2.47;0.67;;;;;;;18.91;nan;100890.53;5075936;28;20464;-86
2022/03/24 11:58:34;;;;;;;7.00;0.70;;;;;;;18.81;nan;100887.56;5093587;28;20449;-87
2022/03/24 12:01:33;;;;;;;1.50;0.40;;;;;;;18.70;nan;100888.41;5075956;28;20449;-87
2022/03/24 12:04:09;;;;;;;1.40;0.60;;;;;;;18.52;nan;100892.16;5072985;28;20475;-86
2022/03/24 12:06:58;;;;;;;2.23;0.60;;;;;;;18.28;nan;100891.31;5075896;28;20476;-86
2022/03/24 12:09:28;;;;;;;1.00;0.57;;;;;;;18.10;nan;100894.19;5092067;28;20448;-87
2022/03/24 12:12:02;;;;;;;2.07;0.50;;;;;;;17.91;nan;100897.06;5092729;28;20931;-86
2022/03/24 12:14:30;;;;;;;3.63;0.80;;;;;;;17.74;nan;100898.00;5109037;28;20954;-86
2022/03/24 12:17:21;;;;;;;5.93;0.50;;;;;;;17.72;nan;100887.19;5108975;28;20816;-86
2022/03/24 12:19:51;;;;;;;1.70;0.90;;;;;;;17.79;nan;100890.69;5094663;28;20930;-86
2022/03/24 12:22:35;;;;;;;1.80;0.70;;;;;;;17.82;nan;100890.22;5092057;28;20445;-86
2022/03/24 12:25:27;;;;;;;4.20;0.90;;;;;;;17.83;nan;100894.69;5093170;28;20838;-86
2022/03/24 12:28:05;;;;;;;2.20;0.70;;;;;;;17.78;nan;100885.41;5075356;28;20853;-86
2022/03/24 12:30:51;;;;;;;5.43;0.80;;;;;;;17.74;nan;100885.03;5108090;28;20452;-86
2022/03/24 12:33:31;;;;;;;2.50;0.60;;;;;;;17.85;nan;100881.47;5075550;28;21021;-86
2022/03/24 12:36:00;;;;;;;2.70;0.73;;;;;;;18.03;nan;100882.44;5060621;28;20433;-87
2022/03/24 12:38:43;;;;;;;2.53;0.70;;;;;;;18.17;nan;100865.34;5091903;28;20514;-86
2022/03/24 12:41:13;;;;;;;4.63;0.90;;;;;;;18.50;nan;100872.16;5092494;28;20436;-86
2022/03/24 12:43:46;;;;;;;3.47;1.00;;;;;;;18.74;nan;100856.38;5108778;28;20452;-85
2022/03/24 12:46:28;;;;;;;4.67;1.40;;;;;;;19.03;nan;100860.88;5035461;28;20501;-87
2022/03/24 12:49:07;;;;;;;1.87;0.57;;;;;;;19.04;nan;100857.03;4946056;28;20459;-86
2022/03/24 12:51:36;;;;;;;3.63;0.60;;;;;;;18.93;nan;100852.34;4975942;28;20922;-86
2022/03/24 12:54:14;;;;;;;3.37;0.83;;;;;;;18.64;nan;100870.88;4978781;28;20448;-86
2022/03/24 12:56:43;;;;;;;1.40;0.50;;;;;;;18.34;nan;100862.69;4994979;28;20444;-85
2022/03/24 12:59:12;;;;;;;2.13;0.60;;;;;;;18.16;nan;100860.06;4994921;28;20464;-86
2022/03/24 13:01:40;;;;;;;1.70;0.57;;;;;;;18.24;nan;100868.00;4978880;28;20495;-86
2022/03/24 13:04:08;;;;;;;2.80;0.40;;;;;;;18.31;nan;100871.47;4996645;28;20442;-87
2022/03/24 13:06:37;;;;;;;2.23;0.50;;;;;;;18.33;nan;100865.69;5050173;28;20469;-86
2022/03/24 13:09:14;;;;;;;1.10;0.50;;;;;;;18.37;nan;100883.50;5095660;28;20453;-85
2022/03/24 13:11:50;;;;;;;1.87;0.50;;;;;;;18.16;nan;100871.13;5095115;28;20451;-87
2022/03/24 13:14:24;;;;;;;1.10;0.40;;;;;;;18.06;nan;100862.59;5095144;28;20492;-87
2022/03/24 13:17:10;;;;;;;4.33;0.77;;;;;;;18.12;nan;100858.84;5078404;28;20934;-86
2022/03/24 13:19:39;;;;;;;2.20;0.40;;;;;;;18.22;nan;100859.09;5095405;28;20934;-86
2022/03/24 13:22:23;;;;;;;1.60;0.40;;;;;;;18.43;nan;100850.19;5081657;28;20449;-86
2022/03/24 13:25:03;;;;;;;2.33;0.40;;;;;;;18.61;nan;100846.44;5091305;28;20448;-86
2022/03/24 13:27:39;;;;;;;3.90;0.60;;;;;;;18.74;nan;100839.78;5090751;28;20485;-87
2022/03/24 13:30:14;;;;;;;1.27;0.40;;;;;;;18.88;nan;100836.47;5074399;28;20932;-87
2022/03/24 13:32:43;;;;;;;1.07;0.50;;;;;;;19.01;nan;100840.91;5074431;28;20464;-86
2022/03/24 13:35:15;;;;;;;6.63;0.70;;;;;;;19.03;nan;100833.19;5074263;28;20502;-86